Säätilassa ei varoituksia.

Lähimmät METAR asemat

 

EFPO - Pori (mil/Civ), Finland
Distance from station: PLU 42km
Päivitetty: 06/04/2020 15:50
Selkeätä
Selkeätä
 Wind from ELO
Tuuli: ELO 17 km/h
Lämpötila: 12°C
Kastepiste: 0°C
Kosteus: 44%
Ilmanpaine: 1025 hPa
Yhteenveto: Selkeätä
Visibility: greater than 10 km
2020/04/06 12:50 EFPO 061250Z AUTO 21009KT 180V240 CAVOK 12/M00 Q1025
EFTU - Turku/Abo, Finland
Distance from station: E 68km
Päivitetty: 06/04/2020 15:50
Selkeätä
Selkeätä
 Wind from LO
Tuuli: LO 22 km/h
Lämpötila: 12°C
Kastepiste: 0°C
Kosteus: 44%
Ilmanpaine: 1027 hPa
Yhteenveto: Selkeätä
Visibility: greater than 10 km
2020/04/06 12:50 EFTU 061250Z AUTO 22012KT 190V250 CAVOK 12/00 Q1027
 
EFTP - Tampere/Pirkkala, Finland
Distance from station: IKO 84km
Päivitetty: 06/04/2020 15:50
Selkeätä
Selkeätä
 Wind from LLO
Tuuli: LLO 20 km/h
Lämpötila: 12°C
Kastepiste: 1°C
Kosteus: 47%
Ilmanpaine: 1025 hPa
Yhteenveto: Selkeätä
Visibility: greater than 10 km
2020/04/06 12:50 EFTP 061250Z AUTO 24011KT CAVOK 12/01 Q1025